createdAt,value
2018-07-22T00:00:15.948Z,73.81
2018-07-22T00:01:25.533Z,74.58
2018-07-22T00:02:35.328Z,74.96
2018-07-22T00:03:45.406Z,74.58
2018-07-22T00:04:55.468Z,74.77
2018-07-22T00:06:05.267Z,74.39
2018-07-22T00:07:14.843Z,74.58
2018-07-22T00:08:24.918Z,74.77
2018-07-22T00:09:34.712Z,75.06
2018-07-22T00:10:44.775Z,74.58
2018-07-22T00:11:54.568Z,75.35
2018-07-22T00:13:04.149Z,75.73
2018-07-22T00:14:14.069Z,76.31
2018-07-22T00:15:23.876Z,76.75
2018-07-22T00:16:33.961Z,76.75
2018-07-22T00:17:43.767Z,76.27
2018-07-22T00:18:53.599Z,76.46
2018-07-22T00:20:03.661Z,76.07
2018-07-22T00:21:13.466Z,75.31
2018-07-22T00:22:23.535Z,74.83
2018-07-22T00:23:33.336Z,75.21
2018-07-22T00:24:43.444Z,75.02
2018-07-22T00:25:53.491Z,75.02
2018-07-22T00:27:03.293Z,75.12
2018-07-22T00:28:12.824Z,75.6
2018-07-22T00:29:23.049Z,75.7
2018-07-22T00:30:32.942Z,75.98
2018-07-22T00:31:42.198Z,75.7
2018-07-22T00:32:52.325Z,76.17
2018-07-22T00:34:02.130Z,75.89
2018-07-22T00:35:11.938Z,76.81
2018-07-22T00:36:22.042Z,77.09
2018-07-22T00:37:31.845Z,77.19
2018-07-22T00:38:41.369Z,77.48
2018-07-22T00:39:51.443Z,77.95
2018-07-22T00:41:01.262Z,78.34
2018-07-22T00:42:11.376Z,78.72
2018-07-22T00:43:20.636Z,79.68
2018-07-22T00:44:30.704Z,79.21
2018-07-22T00:45:40.238Z,79.78
2018-07-22T00:46:50.033Z,79.97
2018-07-22T00:48:00.134Z,80.55
2018-07-22T00:49:09.939Z,80.64
2018-07-22T00:50:19.992Z,80.74
2018-07-22T00:51:30.070Z,81.89
2018-07-22T00:52:39.881Z,82.56
2018-07-22T00:53:50.005Z,83.23
2018-07-22T00:54:59.817Z,83.33
2018-07-22T00:56:09.403Z,83.52
2018-07-22T00:57:19.450Z,83.23
2018-07-22T00:58:29.252Z,83.33
2018-07-22T00:59:39.108Z,83.52
2018-07-22T01:00:48.911Z,84.58
2018-07-22T01:01:58.970Z,84.38
2018-07-22T01:03:09.045Z,84.91
2018-07-22T01:04:18.582Z,85.63
2018-07-22T01:05:28.154Z,85.01
2018-07-22T01:06:37.676Z,84.82
2018-07-22T01:07:47.755Z,86.07
2018-07-22T01:08:57.811Z,86.07
2018-07-22T01:10:07.603Z,85.01
2018-07-22T01:11:17.731Z,85.39
2018-07-22T01:12:27.528Z,84.91
2018-07-22T01:13:37.325Z,85.21
2018-07-22T01:14:47.128Z,85.21
2018-07-22T01:15:57.202Z,85.68
2018-07-22T01:17:07.047Z,85.49
2018-07-22T01:18:17.091Z,85.58
2018-07-22T01:19:27.168Z,86.35
2018-07-22T01:20:36.954Z,86.54
2018-07-22T01:21:47.033Z,85.97
2018-07-22T01:22:56.597Z,86.54
2018-07-22T01:24:06.663Z,87.6
2018-07-22T01:25:16.198Z,87.88
2018-07-22T01:26:26.015Z,87.21
2018-07-22T01:27:36.078Z,88.27
2018-07-22T01:28:46.200Z,87.98
2018-07-22T01:29:56.262Z,87.6
2018-07-22T01:31:06.333Z,87.6
2018-07-22T01:32:16.413Z,87.79
2018-07-22T01:33:26.473Z,87.02
2018-07-22T01:34:36.589Z,87.5
2018-07-22T01:35:45.856Z,86.74
2018-07-22T01:36:55.653Z,87.31
2018-07-22T01:38:05.747Z,86.93
2018-07-22T01:39:15.278Z,86.83
2018-07-22T01:40:25.128Z,87.7
2018-07-22T01:41:34.673Z,88.56
2018-07-22T01:42:44.758Z,89.28
2018-07-22T01:43:54.833Z,88.7
2018-07-22T01:45:04.911Z,89.37
2018-07-22T01:46:15.054Z,89.18
2018-07-22T01:47:25.117Z,90.62
2018-07-22T01:48:35.185Z,92.15
2018-07-22T01:49:45.013Z,93.4
2018-07-22T01:50:55.079Z,94.07
2018-07-22T01:52:04.653Z,94.64
2018-07-22T01:53:14.703Z,93.88
2018-07-22T01:54:24.771Z,94.45
2018-07-22T01:55:34.558Z,95.79
2018-07-22T01:56:44.641Z,94.55
2018-07-22T01:57:54.782Z,95.12
2018-07-22T01:59:04.566Z,95.22
2018-07-22T02:00:14.378Z,95.41
2018-07-22T02:01:23.903Z,95.12
2018-07-22T02:02:34.088Z,95.41
2018-07-22T02:03:44.200Z,95.41
2018-07-22T02:04:53.998Z,95.31
2018-07-22T02:06:03.802Z,94.55
2018-07-22T02:07:13.344Z,93.69
2018-07-22T02:08:23.141Z,92.63
2018-07-22T02:09:32.994Z,92.15
2018-07-22T02:10:43.077Z,92.15
2018-07-22T02:11:53.150Z,91.96
2018-07-22T02:13:03.232Z,92.15
2018-07-22T02:14:13.026Z,91.96
2018-07-22T02:15:23.143Z,90.72
2018-07-22T02:16:32.655Z,90.43
2018-07-22T02:17:42.716Z,90.91
2018-07-22T02:18:52.797Z,91.25
2018-07-22T02:20:02.347Z,91.72
2018-07-22T02:21:12.513Z,92.97
2018-07-22T02:22:22.327Z,95.46
2018-07-22T02:23:32.405Z,95.94
2018-07-22T02:24:42.473Z,96.8
2018-07-22T02:25:52.560Z,97.38
2018-07-22T02:27:02.146Z,97.18
2018-07-22T02:28:11.680Z,96.56
2018-07-22T02:29:21.766Z,96.32
2018-07-22T02:30:31.296Z,96.61
2018-07-22T02:31:41.357Z,97.85
2018-07-22T02:32:51.494Z,97.85
2018-07-22T02:34:01.292Z,96.8
2018-07-22T02:35:11.352Z,96.7
2018-07-22T02:36:21.431Z,96.42
2018-07-22T02:37:31.242Z,97.8
2018-07-22T02:38:40.842Z,97.18
2018-07-22T02:39:50.915Z,98.19
2018-07-22T02:41:00.982Z,98.57
2018-07-22T02:42:10.539Z,96.66
2018-07-22T02:43:20.597Z,96.66
2018-07-22T02:44:30.171Z,96.75
2018-07-22T02:45:40.244Z,96.75
2018-07-22T02:46:50.304Z,97.52
2018-07-22T02:48:00.094Z,97.61
2018-07-22T02:49:09.920Z,97.8
2018-07-22T02:50:20.096Z,98.38
2018-07-22T02:51:30.234Z,98.96
2018-07-22T02:52:40.650Z,98.76
2018-07-22T02:53:50.449Z,99.43
2018-07-22T02:55:00.275Z,98.86
2018-07-22T02:56:10.401Z,98.67
2018-07-22T02:57:20.202Z,97.9
2018-07-22T02:58:30.022Z,98.28
2018-07-22T02:59:39.820Z,98.47
2018-07-22T03:03:36.299Z,98
2018-07-22T03:04:46.094Z,97.23
2018-07-22T03:05:56.186Z,96.84
2018-07-22T03:07:05.980Z,96.94
2018-07-22T03:08:15.517Z,96.75
2018-07-22T03:09:25.653Z,96.18
2018-07-22T03:10:35.477Z,95.03
2018-07-22T03:11:45.560Z,94.84
2018-07-22T03:12:55.640Z,94.84
2018-07-22T03:14:05.717Z,96.08
2018-07-22T03:15:15.843Z,96.84
2018-07-22T03:16:25.898Z,96.47
2018-07-22T03:17:35.977Z,97.9
2018-07-22T03:18:46.065Z,97.8
2018-07-22T03:19:56.150Z,98.19
2018-07-22T03:21:06.011Z,99.82
2018-07-22T03:22:15.829Z,99.99
2018-07-22T03:23:25.626Z,99.99
2018-07-22T03:24:35.445Z,99.99
2018-07-22T03:25:45.506Z,99.99
2018-07-22T03:26:55.348Z,99.99
2018-07-22T03:28:05.425Z,99.99
2018-07-22T03:29:14.970Z,99.99
2018-07-22T03:30:24.749Z,99.99
2018-07-22T03:31:34.020Z,99.99
2018-07-22T03:32:43.589Z,99.99
2018-07-22T03:33:53.669Z,99.99
2018-07-22T03:35:03.523Z,99.99
2018-07-22T03:36:13.318Z,99.99
2018-07-22T03:37:23.385Z,99.99
2018-07-22T03:38:33.523Z,99.99
2018-07-22T03:39:43.369Z,99.99
2018-07-22T03:40:53.175Z,99.99
2018-07-22T03:42:03.250Z,99.99
2018-07-22T03:43:13.309Z,99.99
2018-07-22T03:44:23.479Z,99.99
2018-07-22T03:45:33.545Z,99.99
2018-07-22T03:46:43.087Z,99.91
2018-07-22T03:47:52.662Z,99.53
2018-07-22T03:49:02.466Z,98.96
2018-07-22T03:50:12.596Z,98.67
2018-07-22T03:51:22.679Z,98.38
2018-07-22T03:52:32.481Z,97.9
2018-07-22T03:53:42.532Z,97.52
2018-07-22T03:54:52.583Z,97.61
2018-07-22T03:56:02.709Z,97.42
2018-07-22T03:57:12.257Z,96.37
2018-07-22T03:58:22.334Z,96.8
2018-07-22T03:59:32.397Z,96.8
2018-07-22T04:00:41.939Z,96.22
2018-07-22T04:01:51.524Z,95.75
2018-07-22T04:03:01.576Z,95.36
2018-07-22T04:04:11.121Z,96.22
2018-07-22T04:05:20.922Z,96.61
2018-07-22T04:06:30.991Z,96.22
2018-07-22T04:07:40.815Z,96.13
2018-07-22T04:08:50.345Z,96.13
2018-07-22T04:10:00.422Z,96.89
2018-07-22T04:11:10.206Z,96.13
2018-07-22T04:12:19.722Z,96.32
2018-07-22T04:13:29.870Z,96.32
2018-07-22T04:14:39.957Z,96.89
2018-07-22T04:15:49.753Z,96.51
2018-07-22T04:16:59.842Z,97.28
2018-07-22T04:18:09.919Z,97.38
2018-07-22T04:19:20.037Z,97.52
2018-07-22T04:20:29.825Z,97.76
2018-07-22T04:21:39.898Z,97.9
2018-07-22T04:22:49.957Z,97.81
2018-07-22T04:24:00.010Z,98
2018-07-22T04:25:10.126Z,97.61
2018-07-22T04:26:19.919Z,97.9
2018-07-22T04:27:29.984Z,97.9
2018-07-22T04:28:40.063Z,98
2018-07-22T04:29:50.130Z,98.19
2018-07-22T04:30:59.979Z,97.52
2018-07-22T04:32:10.059Z,97.04
2018-07-22T04:33:19.838Z,97.61
2018-07-22T04:34:29.909Z,96.66
2018-07-22T04:35:39.987Z,96.75
2018-07-22T04:36:50.130Z,96.27
2018-07-22T04:37:59.936Z,96.18
2018-07-22T04:39:10.003Z,96.08
2018-07-22T04:40:18.974Z,95.84
2018-07-22T04:41:29.059Z,94.79
2018-07-22T04:42:38.917Z,94.4
2018-07-22T04:43:48.981Z,94.69
2018-07-22T04:44:59.054Z,94.69
2018-07-22T04:46:08.866Z,94.12
2018-07-22T04:47:18.953Z,93.73
2018-07-22T04:48:28.799Z,94.12
2018-07-22T04:49:38.602Z,93.82
2018-07-22T04:50:48.415Z,93.63
2018-07-22T04:51:58.474Z,93.44
2018-07-22T04:53:08.280Z,92.96
2018-07-22T04:54:17.853Z,92.77
2018-07-22T04:55:27.662Z,92.82
2018-07-22T04:56:37.736Z,92.14
2018-07-22T04:57:47.810Z,92.33
2018-07-22T04:58:57.889Z,92.05
2018-07-22T05:00:08.008Z,92.53
2018-07-22T05:01:18.146Z,91.76
2018-07-22T05:02:28.207Z,91.28
2018-07-22T05:03:38.272Z,90.7
2018-07-22T05:04:48.355Z,90.7
2018-07-22T05:05:58.212Z,90.7
2018-07-22T05:07:08.005Z,90.46
2018-07-22T05:08:18.084Z,90.03
2018-07-22T05:09:27.636Z,89.26
2018-07-22T05:10:37.729Z,89.31
2018-07-22T05:11:47.868Z,89.89
2018-07-22T05:12:57.937Z,89.6
2018-07-22T05:14:07.196Z,89.17
2018-07-22T05:15:17.001Z,88.83
2018-07-22T05:16:26.807Z,89.02
2018-07-22T05:17:36.644Z,88.73
2018-07-22T05:18:46.433Z,88.83
2018-07-22T05:19:56.240Z,88.45
2018-07-22T05:21:06.053Z,88.25
2018-07-22T05:22:16.128Z,87.77
2018-07-22T05:23:25.980Z,88.16
2018-07-22T05:24:35.771Z,88.64
2018-07-22T05:25:45.315Z,87.77
2018-07-22T05:26:55.103Z,87.1
2018-07-22T05:28:04.906Z,86.81
2018-07-22T05:29:14.756Z,86.62
2018-07-22T05:30:24.300Z,86.81
2018-07-22T05:31:34.099Z,86.81
2018-07-22T05:32:43.627Z,85.8
2018-07-22T05:33:53.681Z,85.57
2018-07-22T05:35:03.823Z,85.89
2018-07-22T05:36:13.735Z,86.28
2018-07-22T05:37:23.298Z,85.51
2018-07-22T05:38:33.366Z,85.71
2018-07-22T05:39:43.166Z,85.13
2018-07-22T05:40:53.272Z,85.32
2018-07-22T05:42:02.835Z,84.55
2018-07-22T05:43:12.446Z,84.45
2018-07-22T05:44:22.528Z,84.07
2018-07-22T05:45:32.061Z,84.07
2018-07-22T05:46:41.644Z,83.59
2018-07-22T05:47:51.446Z,83.3
2018-07-22T05:49:00.999Z,83.78
2018-07-22T05:50:10.788Z,83.4
2018-07-22T05:51:20.848Z,83.4
2018-07-22T05:52:30.692Z,83.4
2018-07-22T05:53:40.493Z,82.73
2018-07-22T05:54:50.569Z,83.11
2018-07-22T05:56:00.644Z,83.3
2018-07-22T05:57:10.175Z,83.4
2018-07-22T05:58:20.298Z,83.2
2018-07-22T05:59:30.093Z,82.67
2018-07-22T06:00:40.157Z,83.3
2018-07-22T06:01:49.952Z,82.76
2018-07-22T06:03:00.061Z,82.48
2018-07-22T06:04:09.979Z,82.29
2018-07-22T06:05:19.763Z,81.61
2018-07-22T06:06:29.835Z,81.04
2018-07-22T06:07:39.926Z,80.84
2018-07-22T06:08:50.020Z,80.55
2018-07-22T06:09:59.876Z,80.46
2018-07-22T06:11:09.948Z,80.17
2018-07-22T06:12:19.491Z,79.98
2018-07-22T06:13:29.305Z,80.17
2018-07-22T06:14:38.829Z,80.17
2018-07-22T06:15:48.684Z,79.69
2018-07-22T06:16:58.748Z,79.82
2018-07-22T06:18:08.567Z,79.53
2018-07-22T06:19:18.373Z,79.73
2018-07-22T06:20:27.933Z,78.96
2018-07-22T06:21:38.042Z,79.15
2018-07-22T06:22:47.838Z,79.44
2018-07-22T06:23:57.651Z,78.86
2018-07-22T06:25:07.512Z,78.67
2018-07-22T06:26:17.603Z,78.19
2018-07-22T06:27:27.718Z,78.33
2018-07-22T06:28:37.508Z,78.28
2018-07-22T06:29:47.308Z,78.38
2018-07-22T06:30:57.104Z,77.84
2018-07-22T06:32:06.926Z,77.84
2018-07-22T06:33:17.062Z,77.46
2018-07-22T06:34:26.876Z,78.03
2018-07-22T06:35:36.963Z,78.42
2018-07-22T06:36:46.547Z,78.23
2018-07-22T06:37:56.606Z,78.71
2018-07-22T06:39:06.789Z,78.33
2018-07-22T06:40:16.758Z,78.23
2018-07-22T06:41:26.573Z,78.13
2018-07-22T06:42:36.126Z,78.61
2018-07-22T06:43:46.192Z,77.56
2018-07-22T06:44:56.325Z,77.84
2018-07-22T06:46:05.355Z,77.36
2018-07-22T06:47:15.335Z,77.75
2018-07-22T06:48:25.145Z,77.4
2018-07-22T06:49:35.210Z,77.17
2018-07-22T06:50:44.806Z,77.01
2018-07-22T06:51:54.886Z,77.46
2018-07-22T06:53:04.711Z,77.11
2018-07-22T06:54:14.306Z,76.82
2018-07-22T06:55:24.270Z,76.44
2018-07-22T06:56:34.108Z,76.53
2018-07-22T06:57:43.914Z,76.53
2018-07-22T06:58:53.712Z,76.06
2018-07-22T07:00:03.795Z,76.44
2018-07-22T07:01:13.854Z,75.86
2018-07-22T07:02:23.713Z,76.06
2018-07-22T07:03:33.777Z,75.42
2018-07-22T07:04:43.583Z,74.65
2018-07-22T07:05:53.691Z,75.09
2018-07-22T07:07:03.776Z,75.03
2018-07-22T07:08:13.613Z,74.65
2018-07-22T07:09:23.423Z,74.65
2018-07-22T07:10:33.256Z,74.16
2018-07-22T07:11:43.048Z,73.68
2018-07-22T07:12:52.851Z,74.07
2018-07-22T07:14:02.980Z,74.2
2018-07-22T07:15:13.033Z,73.82
2018-07-22T07:16:22.833Z,74.1
2018-07-22T07:17:32.367Z,73.43
2018-07-22T07:18:42.437Z,73.53
2018-07-22T07:19:52.565Z,72.56
2018-07-22T07:21:02.376Z,73.14
2018-07-22T07:22:11.624Z,73.05
2018-07-22T07:23:21.700Z,71.7
2018-07-22T07:24:31.778Z,71.7
2018-07-22T07:25:41.625Z,71.02
2018-07-22T07:26:51.574Z,70.83
2018-07-22T07:28:01.371Z,71.31
2018-07-22T07:29:11.434Z,71.6
2018-07-22T07:30:21.240Z,71.25
2018-07-22T07:31:31.368Z,71.02
2018-07-22T07:32:41.176Z,71.6
2018-07-22T07:33:51.261Z,70.35
2018-07-22T07:35:01.063Z,70.25
2018-07-22T07:36:10.599Z,70.67
2018-07-22T07:37:20.457Z,70.28
2018-07-22T07:38:30.542Z,69.77
2018-07-22T07:39:40.347Z,69.67
2018-07-22T07:40:50.144Z,69.29
2018-07-22T07:41:59.932Z,69.96
2018-07-22T07:43:09.523Z,69.09
2018-07-22T07:44:19.334Z,69.09
2018-07-22T07:45:29.408Z,68.55
2018-07-22T07:46:39.202Z,68.74
2018-07-22T07:47:49.278Z,67.74
2018-07-22T07:48:59.414Z,67.65
2018-07-22T07:50:08.936Z,67.3
2018-07-22T07:51:18.981Z,67.2
2018-07-22T07:52:29.060Z,67.4
2018-07-22T07:53:39.132Z,67.2
2018-07-22T07:54:49.262Z,67.4
2018-07-22T07:55:58.795Z,67.58
2018-07-22T07:57:08.874Z,67.1
2018-07-22T07:58:18.402Z,65.85
2018-07-22T07:59:28.483Z,66.24
2018-07-22T08:00:38.060Z,66.52
2018-07-22T08:01:47.875Z,65.66
2018-07-22T08:02:57.941Z,65.56
2018-07-22T08:04:08.031Z,66.52
2018-07-22T08:05:18.106Z,66.62
2018-07-22T08:06:28.004Z,65.66
2018-07-22T08:07:38.095Z,66.04
2018-07-22T08:08:47.890Z,66.82
2018-07-22T08:09:57.169Z,66.52
2018-07-22T08:11:07.246Z,65.85
2018-07-22T08:12:17.357Z,66.04
2018-07-22T08:13:27.426Z,65.3
2018-07-22T08:14:36.956Z,65.11
2018-07-22T08:15:46.234Z,64.82
2018-07-22T08:16:56.309Z,64.63
2018-07-22T08:18:06.150Z,64.82
2018-07-22T08:19:16.105Z,64.82
2018-07-22T08:20:26.260Z,64.53
2018-07-22T08:21:36.294Z,64.63
2018-07-22T08:22:46.044Z,64.82
2018-07-22T08:23:55.917Z,64.63
2018-07-22T08:25:05.178Z,64.05
2018-07-22T08:26:15.355Z,64.34
2018-07-22T08:27:24.868Z,63.95
2018-07-22T08:28:34.673Z,64.53
2018-07-22T08:29:44.252Z,64.53
2018-07-22T08:30:54.046Z,64.05
2018-07-22T08:32:04.130Z,64.24
2018-07-22T08:33:14.219Z,64.43
2018-07-22T08:34:23.758Z,64.53
2018-07-22T08:35:33.894Z,64.24
2018-07-22T08:36:43.698Z,64.72
2018-07-22T08:37:53.510Z,64.28
2018-07-22T08:39:03.321Z,64.08
2018-07-22T08:40:13.402Z,63.7
2018-07-22T08:41:23.425Z,63.6
2018-07-22T08:42:33.576Z,63.98
2018-07-22T08:43:43.388Z,63.4
2018-07-22T08:44:53.186Z,63.31
2018-07-22T08:46:03.002Z,63.6
2018-07-22T08:47:12.868Z,62.82
2018-07-22T08:48:22.937Z,62.73
2018-07-22T08:49:33.011Z,62.73
2018-07-22T08:50:42.812Z,62.92
2018-07-22T08:51:52.625Z,63.02
2018-07-22T08:53:02.769Z,62.92
2018-07-22T08:54:12.405Z,63.21
2018-07-22T08:55:22.528Z,62.73
2018-07-22T08:56:32.600Z,62.63
2018-07-22T08:57:42.674Z,62.73
2018-07-22T08:58:52.546Z,62.66
2018-07-22T09:00:02.498Z,62.82
2018-07-22T09:01:12.568Z,62.73
2018-07-22T09:02:22.644Z,62.18
2018-07-22T09:03:32.450Z,62.28
2018-07-22T09:04:42.306Z,62.47
2018-07-22T09:05:52.112Z,62.66
2018-07-22T09:07:01.923Z,61.8
2018-07-22T09:08:11.863Z,61.41
2018-07-22T09:09:21.718Z,62.47
2018-07-22T09:10:31.845Z,62.28
2018-07-22T09:11:41.457Z,62.28
2018-07-22T09:12:51.805Z,61.41
2018-07-22T09:14:01.902Z,61.31
2018-07-22T09:15:11.731Z,61.41
2018-07-22T09:16:21.853Z,61.8
2018-07-22T09:17:31.410Z,61.05
2018-07-22T09:18:41.266Z,61.44
2018-07-22T09:19:50.804Z,61.73
2018-07-22T09:21:00.627Z,61.15
2018-07-22T09:22:10.480Z,61.44
2018-07-22T09:23:20.284Z,60.86
2018-07-22T09:24:30.371Z,61.54
2018-07-22T09:25:39.909Z,61.34
2018-07-22T09:26:50.008Z,61.05
2018-07-22T09:28:00.250Z,60.96
2018-07-22T09:29:09.784Z,61.34
2018-07-22T09:30:19.334Z,61.27
2018-07-22T09:31:28.878Z,60.69
2018-07-22T09:32:38.669Z,61.37
2018-07-22T09:33:48.528Z,60.69
2018-07-22T09:34:58.598Z,60.02
2018-07-22T09:36:08.217Z,60.79
2018-07-22T09:37:18.973Z,60.21
2018-07-22T09:38:29.067Z,60.6
2018-07-22T09:39:38.668Z,60.6
2018-07-22T09:40:47.921Z,60.5
2018-07-22T09:41:57.476Z,60.89
2018-07-22T09:43:06.463Z,60.69
2018-07-22T09:44:16.270Z,60.6
2018-07-22T09:45:26.112Z,59.92
2018-07-22T09:46:36.206Z,59.73
2018-07-22T09:47:46.285Z,60.02
2018-07-22T09:48:56.375Z,60.11
2018-07-22T09:50:06.182Z,59.47
2018-07-22T09:51:16.063Z,58.98
2018-07-22T09:52:25.848Z,58.98
2018-07-22T09:53:35.691Z,59.86
2018-07-22T09:54:45.354Z,59.08
2018-07-22T09:55:55.459Z,58.7
2018-07-22T09:57:05.320Z,59.28
2018-07-22T09:58:14.858Z,58.98
2018-07-22T09:59:24.673Z,58.82
2018-07-22T10:00:34.469Z,59.11
2018-07-22T10:01:44.258Z,59.01
2018-07-22T10:02:53.832Z,59.31
2018-07-22T10:04:03.908Z,58.92
2018-07-22T10:05:13.443Z,58.34
2018-07-22T10:06:22.977Z,58.53
2018-07-22T10:07:33.043Z,58.14
2018-07-22T10:08:43.186Z,58.24
2018-07-22T10:09:52.728Z,58.24
2018-07-22T10:11:02.809Z,58.24
2018-07-22T10:12:12.734Z,58.34
2018-07-22T10:13:22.529Z,58.04
2018-07-22T10:14:32.851Z,58.34
2018-07-22T10:15:43.083Z,58.07
2018-07-22T10:16:53.153Z,58.56
2018-07-22T10:18:02.431Z,57.88
2018-07-22T10:19:12.221Z,57.5
2018-07-22T10:20:22.069Z,57.04
2018-07-22T10:21:32.210Z,56.36
2018-07-22T10:22:42.287Z,55.98
2018-07-22T10:23:52.375Z,56.16
2018-07-22T10:25:02.207Z,56.16
2018-07-22T10:26:12.062Z,55.78
2018-07-22T10:27:21.858Z,55.98
2018-07-22T10:28:31.995Z,55.2
2018-07-22T10:29:41.977Z,54.23
2018-07-22T10:30:52.056Z,54.43
2018-07-22T10:32:02.189Z,54.43
2018-07-22T10:33:12.004Z,53.85
2018-07-22T10:34:22.075Z,53.75
2018-07-22T10:35:31.881Z,54.52
2018-07-22T10:36:41.954Z,54.55
2018-07-22T10:37:52.081Z,54.55
2018-07-22T10:39:02.190Z,54.26
2018-07-22T10:40:12.022Z,53.58
2018-07-22T10:41:22.094Z,54.35
2018-07-22T10:42:31.924Z,53.97
2018-07-22T10:43:42.045Z,53.61
2018-07-22T10:44:51.857Z,54.28
2018-07-22T10:46:01.655Z,53.51
2018-07-22T10:47:11.789Z,53.8
2018-07-22T10:48:21.870Z,54.09
2018-07-22T10:49:31.721Z,53.31
2018-07-22T10:50:41.800Z,53.02
2018-07-22T10:51:51.878Z,52.93
2018-07-22T10:53:01.703Z,53.12
2018-07-22T10:54:11.499Z,53.12
2018-07-22T10:55:21.334Z,53.12
2018-07-22T10:56:31.137Z,52.83
2018-07-22T10:57:41.187Z,52.44
2018-07-22T10:58:51.264Z,51.98
2018-07-22T11:00:01.352Z,51.86
2018-07-22T11:01:10.942Z,51.47
2018-07-22T11:02:21.111Z,51.98
2018-07-22T11:03:31.448Z,52.66
2018-07-22T11:04:41.258Z,52.37
2018-07-22T11:05:51.060Z,52.56
2018-07-22T11:07:01.189Z,52.56
2018-07-22T11:08:11.260Z,51.89
2018-07-22T11:09:21.077Z,51.33
2018-07-22T11:10:30.880Z,51.14
2018-07-22T11:11:40.972Z,51.23
2018-07-22T11:12:51.103Z,51.14
2018-07-22T11:14:01.184Z,51.04
2018-07-22T11:15:10.756Z,51.23
2018-07-22T11:16:20.287Z,51.23
2018-07-22T11:17:30.368Z,51.45
2018-07-22T11:18:40.253Z,51.23
2018-07-22T11:19:50.363Z,51.14
2018-07-22T11:21:00.309Z,51.04
2018-07-22T11:22:10.214Z,51.16
2018-07-22T11:23:20.287Z,50.48
2018-07-22T11:24:30.416Z,50.77
2018-07-22T11:25:40.489Z,50.48
2018-07-22T11:26:50.583Z,50.58
2018-07-22T11:28:00.377Z,51.16
2018-07-22T11:29:10.618Z,50.48
2018-07-22T11:30:20.747Z,50.77
2018-07-22T11:31:30.559Z,50.19
2018-07-22T11:32:40.365Z,50.58
2018-07-22T11:33:49.902Z,50.48
2018-07-22T11:34:59.451Z,49.73
2018-07-22T11:36:09.533Z,48.95
2018-07-22T11:37:19.351Z,49.66
2018-07-22T11:38:29.162Z,47.81
2018-07-22T11:39:39.223Z,46.78
2018-07-22T11:40:49.293Z,46.88
2018-07-22T11:41:59.160Z,44.79
2018-07-22T11:43:08.960Z,43.93
2018-07-22T11:44:18.500Z,43.18
2018-07-22T11:45:28.576Z,42.73
2018-07-22T11:46:38.116Z,42.34
2018-07-22T11:47:48.238Z,41.31
2018-07-22T11:48:58.301Z,40.35
2018-07-22T11:50:07.852Z,39.39
2018-07-22T11:51:17.425Z,39.22
2018-07-22T11:52:27.242Z,37.88
2018-07-22T11:53:36.813Z,37.51
2018-07-22T11:54:46.907Z,37.33
2018-07-22T11:55:56.982Z,36.96
2018-07-22T11:57:07.085Z,34.92
2018-07-22T11:58:16.914Z,35.33
2018-07-22T11:59:26.511Z,35.62
2018-07-22T12:00:36.336Z,34.85
2018-07-22T12:01:46.159Z,34.1
2018-07-22T12:02:56.238Z,33.91
2018-07-22T12:04:06.309Z,33.13
2018-07-22T12:05:16.175Z,31.59
2018-07-22T12:06:26.016Z,31.29
2018-07-22T12:07:36.135Z,30.71
2018-07-22T12:08:46.464Z,30.8
2018-07-22T12:09:56.551Z,30.8
2018-07-22T12:11:06.703Z,31.21
2018-07-22T12:12:16.675Z,30.91
2018-07-22T12:13:27.054Z,30.16
2018-07-22T12:14:37.142Z,30.35
2018-07-22T12:15:46.954Z,29.48
2018-07-22T12:16:57.077Z,29.38
2018-07-22T12:18:06.887Z,29.48
2018-07-22T12:19:16.716Z,29.78
2018-07-22T12:20:26.813Z,28.61
2018-07-22T12:21:36.642Z,28.79
2018-07-22T12:22:46.764Z,28.61
2018-07-22T12:23:56.632Z,28.31
2018-07-22T12:25:06.736Z,28.62
2018-07-22T12:26:16.811Z,27.14
2018-07-22T12:27:26.895Z,27.44
2018-07-22T12:28:36.215Z,26.94
2018-07-22T12:29:46.298Z,27.24
2018-07-22T12:30:56.388Z,27.06
2018-07-22T12:32:06.223Z,26.66
2018-07-22T12:33:16.067Z,26.86
2018-07-22T12:34:25.848Z,26.08
2018-07-22T12:35:35.244Z,25.9
2018-07-22T12:36:45.351Z,26.08
2018-07-22T12:37:55.444Z,26.09
2018-07-22T12:39:05.259Z,25.7
2018-07-22T12:40:15.143Z,25.61
2018-07-22T12:41:25.394Z,25.13
2018-07-22T12:42:35.210Z,24.62
2018-07-22T12:43:45.288Z,24.91
2018-07-22T12:44:55.120Z,25.02
2018-07-22T12:46:05.244Z,24.52
2018-07-22T12:47:15.066Z,25.01
2018-07-22T12:48:24.884Z,24.62
2018-07-22T12:49:34.692Z,24.72
2018-07-22T12:50:44.507Z,24.04
2018-07-22T12:51:54.377Z,23.95
2018-07-22T12:53:04.198Z,24.15
2018-07-22T12:54:14.286Z,23.96
2018-07-22T12:55:23.848Z,23.18
2018-07-22T12:56:33.655Z,23.38
2018-07-22T12:57:43.531Z,23.18
2018-07-22T12:58:53.368Z,23.69
2018-07-22T13:00:03.201Z,22.51
2018-07-22T13:01:13.278Z,22.8
2018-07-22T13:02:23.090Z,23.1
2018-07-22T13:03:33.209Z,22.61
2018-07-22T13:04:43.300Z,22.22
2018-07-22T13:05:53.114Z,22.22
2018-07-22T13:07:03.209Z,21.65
2018-07-22T13:08:12.480Z,21.25
2018-07-22T13:09:22.604Z,21.35
2018-07-22T13:10:32.431Z,21.16
2018-07-22T13:11:42.513Z,21.46
2018-07-22T13:12:52.079Z,19.58
2018-07-22T13:14:01.907Z,20.67
2018-07-22T13:15:11.510Z,21.08
2018-07-22T13:16:21.589Z,20.38
2018-07-22T13:17:31.814Z,19.59
2018-07-22T13:18:41.911Z,20.38
2018-07-22T13:19:52.120Z,19.49
2018-07-22T13:21:02.259Z,20.29
2018-07-22T13:22:12.079Z,19.49
2018-07-22T13:23:22.159Z,19.59
2018-07-22T13:24:32.275Z,19.39
2018-07-22T13:25:42.393Z,18.8
2018-07-22T13:26:51.995Z,19.38
2018-07-22T13:28:02.084Z,19.78
2018-07-22T13:29:11.630Z,19.38
2018-07-22T13:30:21.439Z,19.38
2018-07-22T13:31:31.524Z,19.38
2018-07-22T13:32:41.126Z,19.29
2018-07-22T13:33:50.962Z,18.69
2018-07-22T13:35:01.045Z,19.18
2018-07-22T13:36:10.615Z,18.99
2018-07-22T13:37:20.443Z,18.8
2018-07-22T13:38:30.412Z,18.8
2018-07-22T13:39:40.105Z,18.4
2018-07-22T13:40:49.926Z,18.99
2018-07-22T13:42:00.025Z,18.11
2018-07-22T13:43:10.127Z,17.91
2018-07-22T13:44:20.271Z,18
2018-07-22T13:45:30.390Z,18.5
2018-07-22T13:46:41.132Z,18.59
2018-07-22T13:47:51.219Z,18.4
2018-07-22T13:49:01.050Z,18.5
2018-07-22T13:50:10.927Z,18.01
2018-07-22T13:51:21.023Z,17.41
2018-07-22T13:52:31.112Z,17.9
2018-07-22T13:53:41.205Z,17.9
2018-07-22T13:54:51.280Z,18
2018-07-22T13:56:00.880Z,17.8
2018-07-22T13:57:10.780Z,18.2
2018-07-22T13:58:20.872Z,18.19
2018-07-22T13:59:30.968Z,18.5
2018-07-22T14:00:41.074Z,18.5
2018-07-22T14:01:50.978Z,18
2018-07-22T14:03:00.793Z,17.69
2018-07-22T14:04:10.880Z,17.99
2018-07-22T14:05:20.700Z,18
2018-07-22T14:06:30.824Z,17.9
2018-07-22T14:07:40.937Z,18
2018-07-22T14:08:50.750Z,17.91
2018-07-22T14:10:00.847Z,18.29
2018-07-22T14:11:10.664Z,17.99
2018-07-22T14:12:20.504Z,17.3
2018-07-22T14:13:30.642Z,17.3
2018-07-22T14:14:40.756Z,17.11
2018-07-22T14:15:50.846Z,17.21
2018-07-22T14:17:00.402Z,17.8
2018-07-22T14:18:09.950Z,17.7
2018-07-22T14:19:19.812Z,17.21
2018-07-22T14:20:29.905Z,17.4
2018-07-22T14:21:39.867Z,18.1
2018-07-22T14:22:50.151Z,17.3
2018-07-22T14:24:00.230Z,17.11
2018-07-22T14:25:10.150Z,17.02
2018-07-22T14:26:20.417Z,17.32
2018-07-22T14:27:30.222Z,16.93
2018-07-22T14:28:40.365Z,17.03
2018-07-22T14:29:50.178Z,17.03
2018-07-22T14:31:00.039Z,17.23
2018-07-22T14:32:10.137Z,16.94
2018-07-22T14:33:19.132Z,17.05
2018-07-22T14:34:29.219Z,16.46
2018-07-22T14:35:38.229Z,16.75
2018-07-22T14:36:48.094Z,16.16
2018-07-22T14:37:58.190Z,15.56
2018-07-22T14:39:08.018Z,15.67
2018-07-22T14:40:18.127Z,15.26
2018-07-22T14:41:28.215Z,15.37
2018-07-22T14:42:38.073Z,15.97
2018-07-22T14:43:47.883Z,14.78
2018-07-22T14:44:58.031Z,14.77
2018-07-22T14:46:07.882Z,14.86
2018-07-22T14:47:18.210Z,15.05
2018-07-22T14:48:28.417Z,15.04
2018-07-22T14:49:38.496Z,15.53
2018-07-22T14:50:48.322Z,15.34
2018-07-22T14:51:58.400Z,16.13
2018-07-22T14:53:07.942Z,16.22
2018-07-22T14:54:17.821Z,16.13
2018-07-22T14:55:27.641Z,16.02
2018-07-22T14:56:37.473Z,15.92
2018-07-22T14:57:47.597Z,16.12
2018-07-22T14:58:57.405Z,16.12
2018-07-22T15:00:06.993Z,16.21
2018-07-22T15:01:17.099Z,16.02
2018-07-22T15:02:26.930Z,16.22
2018-07-22T15:03:37.031Z,16.13
2018-07-22T15:04:46.583Z,16.24
2018-07-22T15:05:56.737Z,16.03
2018-07-22T15:07:06.008Z,16.42